sensor_id;sensor_type;location;lat;lon;timestamp;pressure;altitude;pressure_sealevel;temperature;humidity
74895;BME280;63447;49.446;8.666;2023-10-13T00:01:35;100367.00;;;18.24;82.26
74895;BME280;63447;49.446;8.666;2023-10-13T00:04:00;100368.19;;;18.23;81.33
74895;BME280;63447;49.446;8.666;2023-10-13T00:06:27;100381.81;;;18.28;80.76
74895;BME280;63447;49.446;8.666;2023-10-13T00:08:52;100380.19;;;18.27;81.33
74895;BME280;63447;49.446;8.666;2023-10-13T00:11:18;100374.69;;;18.34;81.34
74895;BME280;63447;49.446;8.666;2023-10-13T00:13:44;100377.16;;;18.43;80.44
74895;BME280;63447;49.446;8.666;2023-10-13T00:16:20;100376.63;;;18.30;81.04
74895;BME280;63447;49.446;8.666;2023-10-13T00:18:49;100375.31;;;18.20;81.05
74895;BME280;63447;49.446;8.666;2023-10-13T00:21:19;100386.53;;;18.24;80.59
74895;BME280;63447;49.446;8.666;2023-10-13T00:23:59;100380.22;;;18.30;80.09
74895;BME280;63447;49.446;8.666;2023-10-13T00:26:28;100375.38;;;18.24;79.49
74895;BME280;63447;49.446;8.666;2023-10-13T00:28:58;100383.44;;;18.33;78.99
74895;BME280;63447;49.446;8.666;2023-10-13T00:31:42;100378.28;;;18.35;78.78
74895;BME280;63447;49.446;8.666;2023-10-13T00:34:09;100382.31;;;18.37;77.77
74895;BME280;63447;49.446;8.666;2023-10-13T00:36:40;100374.25;;;18.32;77.83
74895;BME280;63447;49.446;8.666;2023-10-13T00:39:15;100379.16;;;18.42;77.07
74895;BME280;63447;49.446;8.666;2023-10-13T00:41:44;100375.56;;;18.45;76.46
74895;BME280;63447;49.446;8.666;2023-10-13T00:44:17;100371.19;;;18.48;76.25
74895;BME280;63447;49.446;8.666;2023-10-13T00:46:52;100383.56;;;18.47;76.27
74895;BME280;63447;49.446;8.666;2023-10-13T00:49:21;100376.03;;;18.51;75.95
74895;BME280;63447;49.446;8.666;2023-10-13T00:51:47;100374.09;;;18.58;76.39
74895;BME280;63447;49.446;8.666;2023-10-13T00:54:12;100370.97;;;18.60;75.50
74895;BME280;63447;49.446;8.666;2023-10-13T00:56:39;100366.44;;;18.52;75.93
74895;BME280;63447;49.446;8.666;2023-10-13T00:59:12;100370.03;;;18.49;75.86
74895;BME280;63447;49.446;8.666;2023-10-13T01:01:40;100368.97;;;18.60;75.53
74895;BME280;63447;49.446;8.666;2023-10-13T01:04:10;100362.47;;;18.53;76.83
74895;BME280;63447;49.446;8.666;2023-10-13T01:06:38;100364.47;;;18.52;76.37
74895;BME280;63447;49.446;8.666;2023-10-13T01:09:06;100355.66;;;18.50;76.54
74895;BME280;63447;49.446;8.666;2023-10-13T01:11:43;100348.47;;;18.49;75.85
74895;BME280;63447;49.446;8.666;2023-10-13T01:14:12;100345.72;;;18.53;75.40
74895;BME280;63447;49.446;8.666;2023-10-13T01:16:40;100347.31;;;18.54;76.15
74895;BME280;63447;49.446;8.666;2023-10-13T01:19:18;100337.25;;;18.46;75.97
74895;BME280;63447;49.446;8.666;2023-10-13T01:21:50;100332.47;;;18.46;75.57
74895;BME280;63447;49.446;8.666;2023-10-13T01:24:19;100340.13;;;18.53;74.82
74895;BME280;63447;49.446;8.666;2023-10-13T01:26:51;100327.72;;;18.50;74.85
74895;BME280;63447;49.446;8.666;2023-10-13T01:29:18;100332.09;;;18.48;75.08
74895;BME280;63447;49.446;8.666;2023-10-13T01:31:54;100325.34;;;18.52;73.97
74895;BME280;63447;49.446;8.666;2023-10-13T01:34:20;100324.97;;;18.54;74.56
74895;BME280;63447;49.446;8.666;2023-10-13T01:36:49;100321.38;;;18.53;74.46
74895;BME280;63447;49.446;8.666;2023-10-13T01:39:19;100323.75;;;18.51;74.31
74895;BME280;63447;49.446;8.666;2023-10-13T01:41:47;100324.50;;;18.48;74.69
74895;BME280;63447;49.446;8.666;2023-10-13T01:44:25;100318.59;;;18.57;73.20
74895;BME280;63447;49.446;8.666;2023-10-13T01:46:53;100316.28;;;18.62;73.62
74895;BME280;63447;49.446;8.666;2023-10-13T01:49:18;100319.03;;;18.59;73.80
74895;BME280;63447;49.446;8.666;2023-10-13T01:51:44;100307.78;;;18.52;74.09
74895;BME280;63447;49.446;8.666;2023-10-13T01:54:12;100312.19;;;18.53;74.44
74895;BME280;63447;49.446;8.666;2023-10-13T01:56:40;100317.34;;;18.51;74.42
74895;BME280;63447;49.446;8.666;2023-10-13T01:59:11;100313.38;;;18.52;74.31
74895;BME280;63447;49.446;8.666;2023-10-13T02:01:37;100312.09;;;18.42;74.94
74895;BME280;63447;49.446;8.666;2023-10-13T02:04:03;100298.94;;;18.43;74.67
74895;BME280;63447;49.446;8.666;2023-10-13T02:06:30;100303.41;;;18.54;74.55
74895;BME280;63447;49.446;8.666;2023-10-13T02:09:04;100288.53;;;18.40;74.63
74895;BME280;63447;49.446;8.666;2023-10-13T02:11:43;100282.97;;;18.47;73.54
74895;BME280;63447;49.446;8.666;2023-10-13T02:14:12;100285.41;;;18.45;73.06
74895;BME280;63447;49.446;8.666;2023-10-13T02:16:43;100296.16;;;18.46;72.98
74895;BME280;63447;49.446;8.666;2023-10-13T02:19:12;100292.56;;;18.42;72.91
74895;BME280;63447;49.446;8.666;2023-10-13T02:21:45;100292.97;;;18.48;72.40
74895;BME280;63447;49.446;8.666;2023-10-13T02:24:11;100298.56;;;18.44;72.63
74895;BME280;63447;49.446;8.666;2023-10-13T02:26:44;100296.53;;;18.41;72.84
74895;BME280;63447;49.446;8.666;2023-10-13T02:29:12;100298.13;;;18.42;71.99
74895;BME280;63447;49.446;8.666;2023-10-13T02:31:43;100285.78;;;18.43;71.81
74895;BME280;63447;49.446;8.666;2023-10-13T02:34:20;100294.16;;;18.47;71.18
74895;BME280;63447;49.446;8.666;2023-10-13T02:36:47;100280.53;;;18.38;70.90
74895;BME280;63447;49.446;8.666;2023-10-13T02:39:16;100290.56;;;18.43;70.35
74895;BME280;63447;49.446;8.666;2023-10-13T02:41:42;100281.38;;;18.42;70.40
74895;BME280;63447;49.446;8.666;2023-10-13T02:44:14;100284.53;;;18.37;70.73
74895;BME280;63447;49.446;8.666;2023-10-13T02:46:59;100284.59;;;18.44;70.67
74895;BME280;63447;49.446;8.666;2023-10-13T02:49:33;100296.09;;;18.36;70.87
74895;BME280;63447;49.446;8.666;2023-10-13T02:52:02;100280.91;;;18.33;70.00
74895;BME280;63447;49.446;8.666;2023-10-13T02:54:33;100299.28;;;18.38;70.30
74895;BME280;63447;49.446;8.666;2023-10-13T02:57:05;100280.09;;;18.33;69.48
74895;BME280;63447;49.446;8.666;2023-10-13T02:59:33;100280.47;;;18.31;69.87
74895;BME280;63447;49.446;8.666;2023-10-13T03:02:21;100282.06;;;18.28;69.90
74895;BME280;63447;49.446;8.666;2023-10-13T03:04:57;100277.22;;;18.25;69.38
74895;BME280;63447;49.446;8.666;2023-10-13T03:07:26;100279.63;;;18.27;69.44
74895;BME280;63447;49.446;8.666;2023-10-13T03:09:54;100268.91;;;18.33;68.93
74895;BME280;63447;49.446;8.666;2023-10-13T03:12:23;100270.91;;;18.32;69.30
74895;BME280;63447;49.446;8.666;2023-10-13T03:15:06;100280.50;;;18.35;68.86
74895;BME280;63447;49.446;8.666;2023-10-13T03:17:40;100267.25;;;18.24;69.66
74895;BME280;63447;49.446;8.666;2023-10-13T03:22:42;100258.06;;;18.24;69.36
74895;BME280;63447;49.446;8.666;2023-10-13T03:25:14;100268.13;;;18.32;69.99
74895;BME280;63447;49.446;8.666;2023-10-13T03:28:05;100264.03;;;18.22;70.24
74895;BME280;63447;49.446;8.666;2023-10-13T03:30:33;100254.06;;;18.21;70.07
74895;BME280;63447;49.446;8.666;2023-10-13T03:33:08;100272.78;;;18.21;70.55
74895;BME280;63447;49.446;8.666;2023-10-13T03:35:38;100258.91;;;18.28;70.19
74895;BME280;63447;49.446;8.666;2023-10-13T03:38:06;100258.09;;;18.27;70.30
74895;BME280;63447;49.446;8.666;2023-10-13T03:40:45;100246.06;;;18.20;70.63
74895;BME280;63447;49.446;8.666;2023-10-13T03:43:14;100237.28;;;18.18;70.96
74895;BME280;63447;49.446;8.666;2023-10-13T03:45:43;100256.06;;;18.24;71.49
74895;BME280;63447;49.446;8.666;2023-10-13T03:48:11;100252.47;;;18.24;71.65
74895;BME280;63447;49.446;8.666;2023-10-13T03:50:49;100241.31;;;18.24;72.27
74895;BME280;63447;49.446;8.666;2023-10-13T03:53:27;100227.72;;;18.19;72.55
74895;BME280;63447;49.446;8.666;2023-10-13T03:55:53;100227.72;;;18.19;73.06
74895;BME280;63447;49.446;8.666;2023-10-13T03:58:35;100212.16;;;18.18;73.18
74895;BME280;63447;49.446;8.666;2023-10-13T04:01:02;100225.00;;;18.29;73.38
74895;BME280;63447;49.446;8.666;2023-10-13T04:03:28;100224.63;;;18.31;73.48
74895;BME280;63447;49.446;8.666;2023-10-13T04:05:58;100217.06;;;18.35;73.74
74895;BME280;63447;49.446;8.666;2023-10-13T04:08:33;100214.38;;;18.53;73.10
74895;BME280;63447;49.446;8.666;2023-10-13T04:11:10;100218.47;;;18.62;73.13
74895;BME280;63447;49.446;8.666;2023-10-13T04:13:54;100211.75;;;18.71;73.03
74895;BME280;63447;49.446;8.666;2023-10-13T04:16:51;100208.13;;;18.67;72.88
74895;BME280;63447;49.446;8.666;2023-10-13T04:19:18;100205.31;;;18.67;72.67
74895;BME280;63447;49.446;8.666;2023-10-13T04:21:56;100192.06;;;18.56;72.66
74895;BME280;63447;49.446;8.666;2023-10-13T04:24:26;100194.84;;;18.56;73.17
74895;BME280;63447;49.446;8.666;2023-10-13T04:27:00;100191.63;;;18.54;73.80
74895;BME280;63447;49.446;8.666;2023-10-13T04:29:38;100197.56;;;18.46;73.65
74895;BME280;63447;49.446;8.666;2023-10-13T04:32:14;100194.78;;;18.49;73.64
74895;BME280;63447;49.446;8.666;2023-10-13T04:34:43;100200.09;;;18.61;73.27
74895;BME280;63447;49.446;8.666;2023-10-13T04:37:12;100201.63;;;18.55;73.70
74895;BME280;63447;49.446;8.666;2023-10-13T04:40:13;100189.59;;;18.44;73.54
74895;BME280;63447;49.446;8.666;2023-10-13T04:42:39;100197.63;;;18.53;73.61
74895;BME280;63447;49.446;8.666;2023-10-13T04:45:17;100185.59;;;18.45;74.39
74895;BME280;63447;49.446;8.666;2023-10-13T04:48:03;100200.34;;;18.42;74.60
74895;BME280;63447;49.446;8.666;2023-10-13T04:50:47;100200.75;;;18.41;74.58
74895;BME280;63447;49.446;8.666;2023-10-13T04:53:18;100195.22;;;18.51;74.06
74895;BME280;63447;49.446;8.666;2023-10-13T04:56:00;100192.41;;;18.44;73.60
74895;BME280;63447;49.446;8.666;2023-10-13T04:58:30;100191.97;;;18.42;73.75
74895;BME280;63447;49.446;8.666;2023-10-13T05:01:05;100178.66;;;18.18;74.21
74895;BME280;63447;49.446;8.666;2023-10-13T05:03:49;100184.09;;;18.04;73.62
74895;BME280;63447;49.446;8.666;2023-10-13T05:06:17;100168.81;;;17.87;74.19
74895;BME280;63447;49.446;8.666;2023-10-13T05:09:17;100144.28;;;17.62;73.57
74895;BME280;63447;49.446;8.666;2023-10-13T05:12:01;100174.78;;;17.85;72.60
74895;BME280;63447;49.446;8.666;2023-10-13T05:14:47;100174.75;;;17.82;71.67
74895;BME280;63447;49.446;8.666;2023-10-13T05:17:48;100177.16;;;17.83;70.23
74895;BME280;63447;49.446;8.666;2023-10-13T05:20:32;100185.53;;;17.83;70.40
74895;BME280;63447;49.446;8.666;2023-10-13T05:23:15;100179.97;;;17.83;70.83
74895;BME280;63447;49.446;8.666;2023-10-13T05:26:02;100170.75;;;17.79;70.04
74895;BME280;63447;49.446;8.666;2023-10-13T05:28:48;100169.19;;;17.82;68.41
74895;BME280;63447;49.446;8.666;2023-10-13T05:31:32;100172.81;;;17.86;67.30
74895;BME280;63447;49.446;8.666;2023-10-13T05:34:16;100171.66;;;17.90;66.85
74895;BME280;63447;49.446;8.666;2023-10-13T05:37:00;100180.78;;;17.87;66.95
74895;BME280;63447;49.446;8.666;2023-10-13T05:39:45;100175.63;;;17.89;66.35
74895;BME280;63447;49.446;8.666;2023-10-13T05:42:29;100178.03;;;17.91;66.48
74895;BME280;63447;49.446;8.666;2023-10-13T05:45:13;100167.25;;;17.89;66.91
74895;BME280;63447;49.446;8.666;2023-10-13T05:47:41;100158.09;;;17.89;66.62
74895;BME280;63447;49.446;8.666;2023-10-13T05:50:12;100164.50;;;17.96;65.77
74895;BME280;63447;49.446;8.666;2023-10-13T05:52:50;100168.06;;;17.93;66.24
74895;BME280;63447;49.446;8.666;2023-10-13T05:55:28;100164.16;;;18.02;65.06
74895;BME280;63447;49.446;8.666;2023-10-13T05:58:14;100167.34;;;18.04;64.76
74895;BME280;63447;49.446;8.666;2023-10-13T06:01:00;100152.97;;;18.02;64.55
74895;BME280;63447;49.446;8.666;2023-10-13T06:03:44;100159.47;;;18.13;64.28
74895;BME280;63447;49.446;8.666;2023-10-13T06:06:28;100158.25;;;18.10;63.96
74895;BME280;63447;49.446;8.666;2023-10-13T06:09:12;100161.78;;;18.04;63.79
74895;BME280;63447;49.446;8.666;2023-10-13T06:11:56;100162.63;;;18.11;62.30
74895;BME280;63447;49.446;8.666;2023-10-13T06:14:47;100156.63;;;18.09;62.47
74895;BME280;63447;49.446;8.666;2023-10-13T06:17:31;100162.28;;;18.20;61.44
74895;BME280;63447;49.446;8.666;2023-10-13T06:20:15;100147.94;;;18.18;60.72
74895;BME280;63447;49.446;8.666;2023-10-13T06:22:59;100164.75;;;18.28;60.56
74895;BME280;63447;49.446;8.666;2023-10-13T06:25:43;100167.16;;;18.34;59.74
74895;BME280;63447;49.446;8.666;2023-10-13T06:28:27;100172.78;;;18.37;59.85
74895;BME280;63447;49.446;8.666;2023-10-13T06:31:09;100178.78;;;18.39;59.74
74895;BME280;63447;49.446;8.666;2023-10-13T06:33:40;100172.84;;;18.44;59.61
74895;BME280;63447;49.446;8.666;2023-10-13T06:36:13;100174.84;;;18.51;58.96
74895;BME280;63447;49.446;8.666;2023-10-13T06:38:38;100188.44;;;18.56;58.78
74895;BME280;63447;49.446;8.666;2023-10-13T06:41:07;100182.88;;;18.56;59.05
74895;BME280;63447;49.446;8.666;2023-10-13T06:43:33;100188.88;;;18.58;59.13
74895;BME280;63447;49.446;8.666;2023-10-13T06:46:00;100186.47;;;18.56;58.91
74895;BME280;63447;49.446;8.666;2023-10-13T06:48:28;100192.09;;;18.60;57.85
74895;BME280;63447;49.446;8.666;2023-10-13T06:51:01;100178.94;;;18.60;58.22
74895;BME280;63447;49.446;8.666;2023-10-13T06:53:45;100180.19;;;18.74;57.94
74895;BME280;63447;49.446;8.666;2023-10-13T06:56:13;100189.78;;;18.76;57.82
74895;BME280;63447;49.446;8.666;2023-10-13T06:58:44;100190.25;;;18.85;57.80
74895;BME280;63447;49.446;8.666;2023-10-13T07:01:11;100183.09;;;18.91;57.52
74895;BME280;63447;49.446;8.666;2023-10-13T07:03:44;100192.66;;;18.97;57.67
74895;BME280;63447;49.446;8.666;2023-10-13T07:06:17;100187.50;;;19.03;55.99
74895;BME280;63447;49.446;8.666;2023-10-13T07:08:45;100191.56;;;19.16;56.23
74895;BME280;63447;49.446;8.666;2023-10-13T07:11:17;100187.59;;;19.21;55.64
74895;BME280;63447;49.446;8.666;2023-10-13T07:14:01;100187.22;;;19.33;55.48
74895;BME280;63447;49.446;8.666;2023-10-13T07:16:59;100183.22;;;19.38;55.63
74895;BME280;63447;49.446;8.666;2023-10-13T07:19:30;100180.44;;;19.38;56.15
74895;BME280;63447;49.446;8.666;2023-10-13T07:21:59;100172.09;;;19.52;55.11
74895;BME280;63447;49.446;8.666;2023-10-13T07:24:33;100192.53;;;19.74;54.34
74895;BME280;63447;49.446;8.666;2023-10-13T07:27:05;100182.91;;;19.85;53.94
74895;BME280;63447;49.446;8.666;2023-10-13T07:29:33;100173.31;;;19.90;53.49
74895;BME280;63447;49.446;8.666;2023-10-13T07:32:02;100194.91;;;20.04;54.67
74895;BME280;63447;49.446;8.666;2023-10-13T07:34:31;100186.53;;;20.11;53.68
74895;BME280;63447;49.446;8.666;2023-10-13T07:37:04;100187.69;;;20.27;52.93
74895;BME280;63447;49.446;8.666;2023-10-13T07:39:33;100197.31;;;20.30;53.15
74895;BME280;63447;49.446;8.666;2023-10-13T07:42:07;100196.94;;;20.46;52.78
74895;BME280;63447;49.446;8.666;2023-10-13T07:44:43;100208.13;;;20.42;52.52
74895;BME280;63447;49.446;8.666;2023-10-13T07:47:14;100188.94;;;20.19;53.33
74895;BME280;63447;49.446;8.666;2023-10-13T07:49:45;100188.50;;;20.31;51.50
74895;BME280;63447;49.446;8.666;2023-10-13T07:52:11;100196.13;;;20.52;51.27
74895;BME280;63447;49.446;8.666;2023-10-13T07:55:00;100188.91;;;20.48;51.47
74895;BME280;63447;49.446;8.666;2023-10-13T07:57:39;100170.41;;;20.75;49.83
74895;BME280;63447;49.446;8.666;2023-10-13T08:00:20;100176.78;;;20.83;49.06
74895;BME280;63447;49.446;8.666;2023-10-13T08:03:14;100177.94;;;20.96;50.07
74895;BME280;63447;49.446;8.666;2023-10-13T08:05:43;100183.56;;;20.96;48.24
74895;BME280;63447;49.446;8.666;2023-10-13T08:08:30;100173.84;;;21.11;48.85
74895;BME280;63447;49.446;8.666;2023-10-13T08:11:06;100172.63;;;21.16;48.69
74895;BME280;63447;49.446;8.666;2023-10-13T08:13:52;100169.25;;;21.53;48.62
74895;BME280;63447;49.446;8.666;2023-10-13T08:16:24;100176.34;;;21.68;47.70
74895;BME280;63447;49.446;8.666;2023-10-13T08:19:12;100168.53;;;21.93;47.03
74895;BME280;63447;49.446;8.666;2023-10-13T08:21:42;100174.34;;;21.68;47.09
74895;BME280;63447;49.446;8.666;2023-10-13T08:24:15;100154.31;;;21.63;48.19
74895;BME280;63447;49.446;8.666;2023-10-13T08:26:44;100172.53;;;21.41;47.21
74895;BME280;63447;49.446;8.666;2023-10-13T08:29:31;100169.59;;;21.58;46.85
74895;BME280;63447;49.446;8.666;2023-10-13T08:32:16;100173.00;;;21.84;47.05
74895;BME280;63447;49.446;8.666;2023-10-13T08:35:00;100192.34;;;21.75;45.61
74895;BME280;63447;49.446;8.666;2023-10-13T08:37:33;100186.97;;;22.02;46.16
74895;BME280;63447;49.446;8.666;2023-10-13T08:40:11;100195.28;;;22.12;45.58
74895;BME280;63447;49.446;8.666;2023-10-13T08:42:57;100191.84;;;21.87;46.11
74895;BME280;63447;49.446;8.666;2023-10-13T08:45:34;100176.59;;;22.36;45.38
74895;BME280;63447;49.446;8.666;2023-10-13T08:48:03;100184.69;;;22.30;43.63
74895;BME280;63447;49.446;8.666;2023-10-13T08:56:06;100152.78;;;22.85;44.35
74895;BME280;63447;49.446;8.666;2023-10-13T08:58:58;100157.84;;;22.97;44.00
74895;BME280;63447;49.446;8.666;2023-10-13T09:01:35;100160.03;;;23.13;43.88
74895;BME280;63447;49.446;8.666;2023-10-13T09:04:22;100150.13;;;23.05;43.53
74895;BME280;63447;49.446;8.666;2023-10-13T09:09:32;100170.31;;;23.27;42.60
74895;BME280;63447;49.446;8.666;2023-10-13T09:12:11;100170.94;;;22.77;41.98
74895;BME280;63447;49.446;8.666;2023-10-13T09:14:38;100163.47;;;23.28;42.07
74895;BME280;63447;49.446;8.666;2023-10-13T09:17:22;100164.31;;;23.52;41.36
74895;BME280;63447;49.446;8.666;2023-10-13T09:20:09;100167.59;;;24.00;41.24
74895;BME280;63447;49.446;8.666;2023-10-13T09:22:50;100150.00;;;23.69;41.58
74895;BME280;63447;49.446;8.666;2023-10-13T09:25:32;100150.91;;;23.36;40.87
74895;BME280;63447;49.446;8.666;2023-10-13T09:28:13;100144.66;;;23.21;40.44
74895;BME280;63447;49.446;8.666;2023-10-13T09:33:09;100127.31;;;23.53;39.68
74895;BME280;63447;49.446;8.666;2023-10-13T09:35:44;100111.25;;;23.50;40.22
74895;BME280;63447;49.446;8.666;2023-10-13T09:38:21;100108.53;;;23.93;39.65
74895;BME280;63447;49.446;8.666;2023-10-13T09:40:49;100125.81;;;23.45;40.27
74895;BME280;63447;49.446;8.666;2023-10-13T09:43:29;100120.53;;;23.97;40.06
74895;BME280;63447;49.446;8.666;2023-10-13T09:45:59;100095.28;;;24.37;39.58
74895;BME280;63447;49.446;8.666;2023-10-13T09:48:46;100100.06;;;24.17;39.02
74895;BME280;63447;49.446;8.666;2023-10-13T09:51:29;100097.03;;;24.08;39.44
74895;BME280;63447;49.446;8.666;2023-10-13T09:54:06;100095.72;;;24.12;38.85
74895;BME280;63447;49.446;8.666;2023-10-13T09:56:43;100097.31;;;24.13;38.95
74895;BME280;63447;49.446;8.666;2023-10-13T09:59:21;100085.00;;;24.27;38.71
74895;BME280;63447;49.446;8.666;2023-10-13T10:01:51;100083.13;;;24.40;38.75
74895;BME280;63447;49.446;8.666;2023-10-13T10:04:26;100082.63;;;24.45;38.77
74895;BME280;63447;49.446;8.666;2023-10-13T10:06:57;100068.78;;;24.70;37.90
74895;BME280;63447;49.446;8.666;2023-10-13T10:09:29;100069.94;;;24.93;37.65
74895;BME280;63447;49.446;8.666;2023-10-13T10:17:53;100058.88;;;25.51;36.32
74895;BME280;63447;49.446;8.666;2023-10-13T10:20:31;100060.94;;;25.18;37.49
74895;BME280;63447;49.446;8.666;2023-10-13T10:23:10;100067.91;;;25.78;36.99
74895;BME280;63447;49.446;8.666;2023-10-13T10:25:47;100067.88;;;26.11;35.54
74895;BME280;63447;49.446;8.666;2023-10-13T10:28:15;100060.03;;;26.60;35.04
74895;BME280;63447;49.446;8.666;2023-10-13T10:30:44;100070.00;;;27.19;34.96
74895;BME280;63447;49.446;8.666;2023-10-13T10:33:15;100079.66;;;26.80;34.74
74895;BME280;63447;49.446;8.666;2023-10-13T10:35:47;100073.16;;;27.59;33.54
74895;BME280;63447;49.446;8.666;2023-10-13T10:38:17;100070.88;;;27.03;33.75
74895;BME280;63447;49.446;8.666;2023-10-13T10:41:05;100064.72;;;27.55;32.51
74895;BME280;63447;49.446;8.666;2023-10-13T10:48:41;100056.84;;;26.29;34.11
74895;BME280;63447;49.446;8.666;2023-10-13T10:51:14;100033.69;;;26.34;33.91
74895;BME280;63447;49.446;8.666;2023-10-13T10:53:46;100050.94;;;25.62;34.99
74895;BME280;63447;49.446;8.666;2023-10-13T10:56:19;100041.44;;;25.72;34.68
74895;BME280;63447;49.446;8.666;2023-10-13T10:59:03;100035.50;;;25.50;35.39
74895;BME280;63447;49.446;8.666;2023-10-13T11:01:42;100023.22;;;25.73;35.18
74895;BME280;63447;49.446;8.666;2023-10-13T11:04:12;100030.34;;;25.94;34.95
74895;BME280;63447;49.446;8.666;2023-10-13T11:06:54;100024.91;;;26.16;34.97
74895;BME280;63447;49.446;8.666;2023-10-13T11:09:35;100001.88;;;26.01;34.57
74895;BME280;63447;49.446;8.666;2023-10-13T11:14:33;100006.81;;;26.55;34.36
74895;BME280;63447;49.446;8.666;2023-10-13T11:16:59;99990.81;;;26.07;34.66
74895;BME280;63447;49.446;8.666;2023-10-13T11:19:40;100013.16;;;26.17;34.99
74895;BME280;63447;49.446;8.666;2023-10-13T11:22:16;99978.47;;;26.00;34.68
74895;BME280;63447;49.446;8.666;2023-10-13T11:25:04;99972.88;;;26.26;34.39
74895;BME280;63447;49.446;8.666;2023-10-13T11:27:41;99983.72;;;26.44;34.87
74895;BME280;63447;49.446;8.666;2023-10-13T11:30:14;99987.44;;;26.53;34.09
74895;BME280;63447;49.446;8.666;2023-10-13T11:32:43;99992.06;;;26.34;34.20
74895;BME280;63447;49.446;8.666;2023-10-13T11:35:09;99983.88;;;26.24;34.46
74895;BME280;63447;49.446;8.666;2023-10-13T11:37:52;99972.22;;;26.22;34.66
74895;BME280;63447;49.446;8.666;2023-10-13T11:40:46;99965.19;;;26.68;34.75
74895;BME280;63447;49.446;8.666;2023-10-13T11:46:08;99945.06;;;26.24;33.54
74895;BME280;63447;49.446;8.666;2023-10-13T11:48:36;99964.38;;;26.67;34.40
74895;BME280;63447;49.446;8.666;2023-10-13T11:51:05;99973.59;;;26.30;34.18
74895;BME280;63447;49.446;8.666;2023-10-13T11:53:39;99961.78;;;26.48;34.16
74895;BME280;63447;49.446;8.666;2023-10-13T11:56:05;99961.19;;;26.40;33.71
74895;BME280;63447;49.446;8.666;2023-10-13T11:58:37;99956.69;;;27.06;33.21
74895;BME280;63447;49.446;8.666;2023-10-13T12:01:08;99950.72;;;29.41;30.30
74895;BME280;63447;49.446;8.666;2023-10-13T12:03:46;99938.25;;;30.81;27.60
74895;BME280;63447;49.446;8.666;2023-10-13T12:06:34;99934.88;;;31.24;26.78
74895;BME280;63447;49.446;8.666;2023-10-13T12:09:22;99942.28;;;31.31;26.20
74895;BME280;63447;49.446;8.666;2023-10-13T12:11:49;99936.50;;;31.64;26.51
74895;BME280;63447;49.446;8.666;2023-10-13T12:14:21;99929.88;;;31.10;26.79
74895;BME280;63447;49.446;8.666;2023-10-13T12:16:54;99933.63;;;32.02;25.41
74895;BME280;63447;49.446;8.666;2023-10-13T12:19:22;99920.88;;;31.74;25.85
74895;BME280;63447;49.446;8.666;2023-10-13T12:21:57;99908.31;;;32.84;24.90
74895;BME280;63447;49.446;8.666;2023-10-13T12:24:29;99899.69;;;32.04;25.91
74895;BME280;63447;49.446;8.666;2023-10-13T12:27:02;99896.28;;;33.15;24.11
74895;BME280;63447;49.446;8.666;2023-10-13T12:29:42;99896.25;;;33.50;23.66
74895;BME280;63447;49.446;8.666;2023-10-13T12:32:11;99900.44;;;30.38;26.92
74895;BME280;63447;49.446;8.666;2023-10-13T12:34:38;99886.75;;;30.60;27.48
74895;BME280;63447;49.446;8.666;2023-10-13T12:37:26;99879.00;;;31.42;26.56
74895;BME280;63447;49.446;8.666;2023-10-13T12:40:08;99874.38;;;33.47;25.24
74895;BME280;63447;49.446;8.666;2023-10-13T12:42:53;99865.25;;;34.20;23.35
74895;BME280;63447;49.446;8.666;2023-10-13T12:45:45;99871.28;;;33.96;23.66
74895;BME280;63447;49.446;8.666;2023-10-13T12:48:30;99857.25;;;30.73;27.21
74895;BME280;63447;49.446;8.666;2023-10-13T12:51:14;99868.13;;;29.62;29.36
74895;BME280;63447;49.446;8.666;2023-10-13T12:53:53;99871.75;;;29.26;28.75
74895;BME280;63447;49.446;8.666;2023-10-13T12:56:19;99879.66;;;28.33;30.94
74895;BME280;63447;49.446;8.666;2023-10-13T12:58:54;99874.09;;;27.77;31.37
74895;BME280;63447;49.446;8.666;2023-10-13T13:01:23;99882.78;;;27.60;32.15
74895;BME280;63447;49.446;8.666;2023-10-13T13:03:51;99872.25;;;28.76;30.12
74895;BME280;63447;49.446;8.666;2023-10-13T13:06:23;99864.66;;;29.31;29.38
74895;BME280;63447;49.446;8.666;2023-10-13T13:08:57;99868.28;;;29.22;29.40
74895;BME280;63447;49.446;8.666;2023-10-13T13:11:24;99872.41;;;28.32;31.21
74895;BME280;63447;49.446;8.666;2023-10-13T13:13:50;99856.66;;;28.40;31.57
74895;BME280;63447;49.446;8.666;2023-10-13T13:16:17;99866.41;;;28.70;30.90
74895;BME280;63447;49.446;8.666;2023-10-13T13:18:44;99859.19;;;28.38;31.70
74895;BME280;63447;49.446;8.666;2023-10-13T13:21:10;99842.34;;;30.02;29.28
74895;BME280;63447;49.446;8.666;2023-10-13T13:23:50;99849.22;;;31.43;26.70
74895;BME280;63447;49.446;8.666;2023-10-13T13:26:16;99829.09;;;32.05;25.88
74895;BME280;63447;49.446;8.666;2023-10-13T13:28:43;99837.25;;;33.12;24.32
74895;BME280;63447;49.446;8.666;2023-10-13T13:31:08;99815.66;;;33.11;23.93
74895;BME280;63447;49.446;8.666;2023-10-13T13:33:40;99830.88;;;32.17;24.89
74895;BME280;63447;49.446;8.666;2023-10-13T13:36:09;99798.66;;;29.54;27.94
74895;BME280;63447;49.446;8.666;2023-10-13T13:38:40;99821.75;;;30.50;27.60
74895;BME280;63447;49.446;8.666;2023-10-13T13:41:14;99797.56;;;29.52;28.66
74895;BME280;63447;49.446;8.666;2023-10-13T13:43:45;99812.41;;;29.47;29.16
74895;BME280;63447;49.446;8.666;2023-10-13T13:46:24;99806.03;;;29.79;27.81
74895;BME280;63447;49.446;8.666;2023-10-13T13:48:55;99788.94;;;29.88;27.79
74895;BME280;63447;49.446;8.666;2023-10-13T13:51:25;99791.34;;;31.81;25.19
74895;BME280;63447;49.446;8.666;2023-10-13T13:53:55;99778.63;;;32.11;25.14
74895;BME280;63447;49.446;8.666;2023-10-13T13:56:26;99770.13;;;32.66;24.57
74895;BME280;63447;49.446;8.666;2023-10-13T13:59:00;99762.50;;;32.78;24.50
74895;BME280;63447;49.446;8.666;2023-10-13T14:01:39;99756.50;;;32.21;25.69